Time;durP1;ratioP1;P1;durP2;ratioP2;P2;SDS_P1;SDS_P2;PMS_P1;PMS_P2;Temp;Humidity;BMP_temperature;BMP_pressure;BME280_temperature;BME280_humidity;BME280_pressure;Samples;Min_cycle;Max_cycle;Signal;HPM_P1;HPM_P2
2021/10/20 00:02:36;;;;;;;2.78;2.47;;;;;;;11.62;66.86;96986.50;5013287;28;20046;-81
2021/10/20 00:05:08;;;;;;;4.15;2.63;;;;;;;11.59;64.53;96989.47;5014079;28;20415;-80
2021/10/20 00:07:40;;;;;;;;;;;;;;;11.61;65.27;96980.47;5017283;28;20049;-81
2021/10/20 00:10:11;;;;;;;2.58;2.22;;;;;;;11.58;64.45;96972.19;5017047;28;19921;-80
2021/10/20 00:12:41;;;;;;;2.40;2.00;;;;;;;11.59;64.36;96981.63;5017052;28;20050;-81
2021/10/20 00:15:18;;;;;;;4.63;2.28;;;;;;;11.59;63.73;96969.41;5017391;28;20046;-80
2021/10/20 00:17:52;;;;;;;2.22;1.75;;;;;;;11.60;63.78;96975.44;5017120;28;20046;-81
2021/10/20 00:20:26;;;;;;;4.95;2.75;;;;;;;11.63;65.25;96980.28;5016619;28;20054;-81
2021/10/20 00:22:56;;;;;;;2.72;2.13;;;;;;;11.63;63.68;96969.81;4999059;28;20050;-80
2021/10/20 00:25:33;;;;;;;2.33;2.13;;;;;;;11.65;64.02;96967.84;5016893;28;20471;-81
2021/10/20 00:28:07;;;;;;;3.72;2.83;;;;;;;11.65;66.03;96979.09;5016493;28;20050;-81
2021/10/20 00:30:38;;;;;;;3.15;2.85;;;;;;;11.66;64.87;96974.72;5016749;28;20455;-81
2021/10/20 00:33:11;;;;;;;3.05;2.42;;;;;;;11.67;64.44;96971.09;5016237;28;20050;-81
2021/10/20 00:35:46;;;;;;;2.70;2.38;;;;;;;11.67;66.02;96965.88;5016540;28;20144;-82
2021/10/20 00:38:17;;;;;;;3.28;2.40;;;;;;;11.64;63.98;96958.41;5016307;28;20412;-81
2021/10/20 00:40:52;;;;;;;2.47;2.15;;;;;;;11.64;63.34;96955.78;5016219;28;20049;-80
2021/10/20 00:43:22;;;;;;;3.03;2.60;;;;;;;11.63;63.38;96951.53;5016586;28;20476;-80
2021/10/20 00:45:55;;;;;;;2.92;2.10;;;;;;;11.62;66.75;96942.09;5016180;28;20584;-81
2021/10/20 00:48:27;;;;;;;2.67;2.42;;;;;;;11.62;67.33;96947.31;5016423;28;20050;-81
2021/10/20 00:50:58;;;;;;;;;;;;;;;11.60;65.94;96942.25;5016664;28;20050;-81
2021/10/20 00:53:31;;;;;;;3.28;2.90;;;;;;;11.54;64.85;96930.75;5016428;28;19922;-81
2021/10/20 00:56:02;;;;;;;4.57;3.50;;;;;;;11.53;64.15;96934.34;5015829;28;20079;-81
2021/10/20 00:58:31;;;;;;;4.75;3.05;;;;;;;11.51;64.03;96943.34;5015468;28;20468;-81
2021/10/20 01:00:59;;;;;;;5.03;3.85;;;;;;;11.50;68.78;96932.09;5014613;28;20050;-81
2021/10/20 01:03:29;;;;;;;3.15;2.85;;;;;;;11.49;67.62;96927.03;5015140;28;20045;-80
2021/10/20 01:05:57;;;;;;;5.90;2.80;;;;;;;11.46;65.33;96928.22;5015819;28;20049;-80
2021/10/20 01:08:24;;;;;;;4.03;2.92;;;;;;;11.45;68.92;96926.56;5015099;28;20120;-80
2021/10/20 01:10:52;;;;;;;3.13;2.60;;;;;;;11.42;67.71;96926.94;5015121;28;20065;-81
2021/10/20 01:13:21;;;;;;;4.30;2.83;;;;;;;11.40;66.18;96926.31;5015127;28;20085;-81
2021/10/20 01:15:49;;;;;;;2.55;2.35;;;;;;;11.41;65.13;96922.69;5015031;28;20061;-80
2021/10/20 01:18:18;;;;;;;2.80;2.55;;;;;;;11.37;65.11;96918.84;5015549;28;20415;-81
2021/10/20 01:20:51;;;;;;;3.88;2.80;;;;;;;11.37;64.03;96925.84;5014916;28;20108;-80
2021/10/20 01:23:20;;;;;;;2.95;2.60;;;;;;;11.33;64.07;96923.59;5015337;28;20042;-80
2021/10/20 01:25:48;;;;;;;3.83;2.88;;;;;;;11.33;64.29;96917.56;5015932;28;20064;-80
2021/10/20 01:28:17;;;;;;;3.17;2.88;;;;;;;11.32;64.33;96910.72;5017232;28;20053;-81
2021/10/20 01:30:44;;;;;;;2.92;2.70;;;;;;;11.28;64.35;96907.66;5021878;28;20137;-80
2021/10/20 01:33:12;;;;;;;3.20;2.90;;;;;;;11.27;65.41;96908.63;5017957;28;20504;-80
2021/10/20 01:35:39;;;;;;;3.22;2.80;;;;;;;11.24;64.38;96897.72;5016073;28;20058;-81
2021/10/20 01:38:07;;;;;;;3.20;2.90;;;;;;;11.21;64.73;96892.88;5014396;28;20050;-81
2021/10/20 01:40:36;;;;;;;4.55;2.97;;;;;;;11.17;64.57;96896.81;5015843;28;20050;-81
2021/10/20 01:43:04;;;;;;;5.32;2.83;;;;;;;11.13;65.13;96885.94;5015340;28;20428;-80
2021/10/20 01:45:32;;;;;;;3.28;2.60;;;;;;;11.09;66.68;96885.47;5015156;28;20535;-81
2021/10/20 01:48:00;;;;;;;3.20;2.75;;;;;;;11.03;65.42;96875.75;5014357;28;20076;-81
2021/10/20 01:50:27;;;;;;;2.88;2.45;;;;;;;11.02;65.91;96868.06;5013874;28;20050;-80
2021/10/20 01:52:55;;;;;;;4.32;3.22;;;;;;;10.99;65.63;96858.81;5013811;28;20207;-80
2021/10/20 01:55:23;;;;;;;3.92;3.00;;;;;;;10.97;67.46;96868.63;5014001;28;20049;-80
2021/10/20 01:57:52;;;;;;;3.80;2.50;;;;;;;10.95;65.74;96859.34;5015005;28;20057;-81
2021/10/20 02:00:20;;;;;;;6.03;2.58;;;;;;;10.92;66.59;96853.50;5014045;28;20136;-81
2021/10/20 02:02:48;;;;;;;3.03;2.50;;;;;;;10.91;66.93;96843.22;5014795;28;20053;-80
2021/10/20 02:05:16;;;;;;;3.72;2.65;;;;;;;10.89;66.42;96848.63;5015062;28;20042;-80
2021/10/20 02:07:45;;;;;;;2.65;2.42;;;;;;;10.89;67.16;96842.63;5014572;28;20054;-81
2021/10/20 02:10:15;;;;;;;3.67;2.65;;;;;;;10.90;66.51;96839.00;5014168;28;20062;-81
2021/10/20 02:12:43;;;;;;;2.95;2.50;;;;;;;10.88;66.55;96827.94;5014980;28;20496;-81
2021/10/20 02:15:13;;;;;;;3.80;2.75;;;;;;;10.86;66.87;96819.47;5014761;28;20056;-80
2021/10/20 02:17:41;;;;;;;3.80;2.63;;;;;;;10.85;67.58;96816.03;5015168;28;20046;-80
2021/10/20 02:20:11;;;;;;;3.60;2.50;;;;;;;10.84;66.17;96822.25;5015192;28;20058;-80
2021/10/20 02:22:41;;;;;;;3.28;2.50;;;;;;;10.85;65.69;96815.25;5035172;28;20058;-81
2021/10/20 02:25:10;;;;;;;2.92;2.00;;;;;;;10.85;65.90;96812.63;5033743;28;20071;-80
2021/10/20 02:27:38;;;;;;;3.13;2.25;;;;;;;10.84;65.46;96809.19;5034621;28;20029;-81
2021/10/20 02:30:08;;;;;;;3.15;2.30;;;;;;;10.87;65.44;96810.66;5023034;28;20129;-80
2021/10/20 02:32:37;;;;;;;3.05;2.50;;;;;;;10.88;65.11;96796.59;5017888;28;20050;-80
2021/10/20 02:35:06;;;;;;;2.35;1.85;;;;;;;10.90;66.04;96797.25;5017005;28;20053;-80
2021/10/20 02:37:33;;;;;;;3.03;2.72;;;;;;;10.94;65.45;96788.06;5015162;28;20053;-80
2021/10/20 02:40:01;;;;;;;5.13;2.50;;;;;;;10.98;64.98;96783.31;5014560;28;20054;-81
2021/10/20 02:42:29;;;;;;;5.18;1.88;;;;;;;11.00;65.81;96782.13;5015135;28;20056;-81
2021/10/20 02:44:57;;;;;;;2.72;2.45;;;;;;;11.01;65.80;96783.75;5014373;28;20053;-81
2021/10/20 02:47:25;;;;;;;2.72;2.50;;;;;;;11.01;66.47;96786.34;5014785;28;20053;-81
2021/10/20 02:49:55;;;;;;;5.57;2.83;;;;;;;11.03;67.06;96773.13;5014106;28;20057;-80
2021/10/20 02:52:24;;;;;;;2.50;2.13;;;;;;;11.04;66.45;96777.34;5013897;28;20049;-81
2021/10/20 02:54:52;;;;;;;4.63;2.78;;;;;;;11.04;65.55;96772.97;5014143;28;20057;-80
2021/10/20 02:57:20;;;;;;;2.50;2.30;;;;;;;11.03;65.81;96771.31;5014284;28;20132;-81
2021/10/20 02:59:53;;;;;;;2.80;2.25;;;;;;;11.04;65.54;96766.91;5014039;28;20077;-81
2021/10/20 03:02:21;;;;;;;5.30;2.40;;;;;;;11.01;65.33;96772.50;5014465;28;20053;-80
2021/10/20 03:04:49;;;;;;;2.50;2.30;;;;;;;11.02;65.50;96764.50;5013840;28;20077;-80
2021/10/20 03:07:19;;;;;;;2.85;2.30;;;;;;;11.02;65.07;96774.94;5014032;28;20077;-80
2021/10/20 03:09:47;;;;;;;3.58;2.53;;;;;;;11.04;69.10;96772.97;5014133;28;20142;-80
2021/10/20 03:12:16;;;;;;;3.20;2.47;;;;;;;11.04;66.46;96767.75;5013778;28;20066;-80
2021/10/20 03:14:44;;;;;;;2.70;2.50;;;;;;;11.05;68.34;96768.53;5014483;28;20101;-80
2021/10/20 03:17:15;;;;;;;3.30;2.83;;;;;;;11.07;70.68;96769.19;5013827;28;20073;-81
2021/10/20 03:19:44;;;;;;;6.30;2.53;;;;;;;11.05;69.44;96773.75;5014241;28;20056;-81
2021/10/20 03:22:13;;;;;;;5.35;2.83;;;;;;;11.05;67.88;96779.78;5016353;28;20059;-80
2021/10/20 03:24:43;;;;;;;3.58;2.60;;;;;;;11.03;68.39;96775.75;5014872;28;20049;-81
2021/10/20 03:27:11;;;;;;;3.13;2.72;;;;;;;11.00;67.51;96779.53;5014873;28;20052;-81
2021/10/20 03:29:39;;;;;;;4.40;3.17;;;;;;;10.99;68.52;96771.88;5014172;28;20046;-80
2021/10/20 03:32:08;;;;;;;3.53;2.58;;;;;;;10.94;67.08;96772.41;5014096;28;20570;-81
2021/10/20 03:34:36;;;;;;;3.78;2.72;;;;;;;10.92;67.73;96769.97;5014039;28;20156;-81
2021/10/20 03:37:04;;;;;;;5.22;3.20;;;;;;;10.88;66.80;96765.28;5014088;28;20541;-81
2021/10/20 03:39:32;;;;;;;5.20;2.72;;;;;;;10.84;66.92;96771.84;5015068;28;20125;-81
2021/10/20 03:42:02;;;;;;;4.00;3.30;;;;;;;10.78;66.54;96768.19;5018011;28;20081;-80
2021/10/20 03:44:30;;;;;;;4.47;3.22;;;;;;;10.71;66.63;96759.41;5017928;28;20518;-81
2021/10/20 03:46:58;;;;;;;3.70;2.75;;;;;;;10.63;66.79;96760.31;5017765;28;20080;-81
2021/10/20 03:49:26;;;;;;;4.03;3.40;;;;;;;10.53;67.15;96749.31;5018855;28;20053;-81
2021/10/20 03:51:55;;;;;;;4.00;3.53;;;;;;;10.42;67.45;96757.59;5017868;28;20499;-80
2021/10/20 03:54:23;;;;;;;6.72;3.58;;;;;;;10.31;68.08;96751.78;5017720;28;20128;-80
2021/10/20 03:56:50;;;;;;;5.30;3.30;;;;;;;10.19;68.28;96750.59;5017236;28;20056;-81
2021/10/20 03:59:20;;;;;;;3.22;2.92;;;;;;;10.10;68.57;96743.78;5017147;28;20535;-81
2021/10/20 04:01:48;;;;;;;3.78;3.20;;;;;;;10.05;68.68;96740.91;5017873;28;20104;-80
2021/10/20 04:04:16;;;;;;;4.97;3.78;;;;;;;10.00;68.69;96738.03;5017145;28;20046;-80
2021/10/20 04:06:44;;;;;;;4.85;4.10;;;;;;;9.96;70.95;96727.13;5016964;28;20061;-81
2021/10/20 04:09:12;;;;;;;6.82;3.95;;;;;;;9.93;69.71;96727.50;5027913;23;20313;-74
2021/10/20 04:11:40;;;;;;;5.55;3.92;;;;;;;9.88;69.67;96717.59;5015011;28;20519;-73
2021/10/20 04:14:07;;;;;;;5.22;3.60;;;;;;;9.87;69.47;96713.34;5015215;28;20521;-74
2021/10/20 04:16:36;;;;;;;4.88;3.58;;;;;;;9.88;69.65;96720.19;5015012;28;20057;-74
2021/10/20 04:19:04;;;;;;;3.88;3.50;;;;;;;9.86;69.33;96724.78;5014392;28;20056;-74
2021/10/20 04:21:32;;;;;;;4.53;3.67;;;;;;;9.84;69.85;96713.72;5015120;28;20056;-74
2021/10/20 04:23:59;;;;;;;3.70;3.30;;;;;;;9.83;69.85;96706.06;5014963;28;20681;-73
2021/10/20 04:26:26;;;;;;;4.05;3.10;;;;;;;9.81;69.62;96702.81;5014722;28;20463;-74
2021/10/20 04:28:54;;;;;;;3.97;3.45;;;;;;;9.79;69.52;96700.38;5014304;28;20049;-74
2021/10/20 04:31:21;;;;;;;4.15;3.75;;;;;;;9.76;69.63;96695.53;5014753;28;20057;-73
2021/10/20 04:33:50;;;;;;;3.88;3.38;;;;;;;9.73;69.98;96695.06;5014395;28;20054;-74
2021/10/20 04:36:18;;;;;;;6.70;3.67;;;;;;;9.70;69.72;96688.41;5014953;28;20061;-74
2021/10/20 04:38:45;;;;;;;4.03;3.40;;;;;;;9.68;69.85;96677.34;5014264;28;20054;-75
2021/10/20 04:41:13;;;;;;;6.85;3.63;;;;;;;9.65;69.93;96677.69;5014104;28;20046;-74
2021/10/20 04:43:40;;;;;;;4.85;3.30;;;;;;;9.64;69.89;96673.47;5012406;28;20056;-74
2021/10/20 04:46:08;;;;;;;5.70;3.30;;;;;;;9.65;69.98;96667.28;5012364;28;20038;-74
2021/10/20 04:48:35;;;;;;;4.13;3.72;;;;;;;9.65;69.88;96672.50;5012408;28;20108;-74
2021/10/20 04:51:04;;;;;;;5.40;3.70;;;;;;;9.65;70.09;96672.50;5011754;28;20050;-75
2021/10/20 04:53:31;;;;;;;5.55;3.80;;;;;;;9.67;70.05;96675.72;5012221;28;20050;-74
2021/10/20 04:55:59;;;;;;;4.88;3.70;;;;;;;9.68;70.10;96677.34;5012516;28;20046;-74
2021/10/20 04:58:26;;;;;;;10.45;3.50;;;;;;;9.69;69.99;96674.56;5013097;28;20058;-74
2021/10/20 05:00:54;;;;;;;12.50;6.60;;;;;;;9.72;69.95;96672.59;5014499;28;20057;-74
2021/10/20 05:03:21;;;;;;;4.53;3.88;;;;;;;9.74;69.97;96673.25;5014237;28;20050;-75
2021/10/20 05:05:49;;;;;;;4.10;3.70;;;;;;;9.77;70.74;96667.66;5013874;28;20429;-74
2021/10/20 05:08:18;;;;;;;4.78;3.60;;;;;;;9.80;70.05;96675.97;5014001;28;20069;-75
2021/10/20 05:10:46;;;;;;;7.18;3.40;;;;;;;9.79;69.90;96663.91;5013542;28;20431;-74
2021/10/20 05:13:13;;;;;;;5.00;3.65;;;;;;;9.79;69.79;96668.31;5014378;28;20045;-74
2021/10/20 05:15:42;;;;;;;5.78;3.65;;;;;;;9.78;69.70;96669.31;5013555;28;20050;-74
2021/10/20 05:18:10;;;;;;;6.20;4.13;;;;;;;9.78;69.72;96677.13;5013764;28;20050;-74
2021/10/20 05:20:38;;;;;;;5.78;3.55;;;;;;;9.78;70.06;96672.72;5013291;28;20060;-74
2021/10/20 05:23:05;;;;;;;5.28;3.65;;;;;;;9.76;69.82;96674.69;5013586;28;20050;-74
2021/10/20 05:25:34;;;;;;;7.78;4.53;;;;;;;9.75;69.94;96677.47;5013436;28;20061;-74
2021/10/20 05:28:02;;;;;;;5.00;3.85;;;;;;;9.74;70.55;96666.22;5013637;28;20108;-75
2021/10/20 05:30:29;;;;;;;5.90;4.38;;;;;;;9.73;70.56;96664.63;5013547;28;20049;-75
2021/10/20 05:32:57;;;;;;;4.93;4.03;;;;;;;9.71;70.32;96664.00;5015318;28;20046;-74
2021/10/20 05:35:24;;;;;;;6.10;4.40;;;;;;;9.67;70.68;96660.09;5032668;28;20056;-75
2021/10/20 05:37:53;;;;;;;8.10;4.63;;;;;;;9.63;70.44;96664.03;5034433;28;20049;-75
2021/10/20 05:40:23;;;;;;;6.10;3.92;;;;;;;9.61;70.46;96663.41;5019765;28;20050;-75
2021/10/20 05:42:51;;;;;;;7.10;4.28;;;;;;;9.59;70.58;96657.56;5015837;28;20053;-75
2021/10/20 05:45:19;;;;;;;5.05;4.55;;;;;;;9.60;70.76;96656.56;5014557;28;20057;-74
2021/10/20 05:47:47;;;;;;;5.15;4.15;;;;;;;9.59;70.46;96647.13;5035120;28;20253;-74
2021/10/20 05:50:15;;;;;;;6.60;4.53;;;;;;;9.57;70.68;96649.91;5025653;28;20046;-75
2021/10/20 05:52:43;;;;;;;6.38;4.78;;;;;;;9.51;70.74;96652.41;5013561;28;20054;-74
2021/10/20 05:55:11;;;;;;;5.05;4.13;;;;;;;9.48;70.63;96643.94;5013480;28;20050;-74
2021/10/20 05:57:40;;;;;;;7.55;4.78;;;;;;;9.44;70.77;96645.28;5013695;28;20061;-74
2021/10/20 06:00:11;;;;;;;6.32;4.40;;;;;;;9.41;71.06;96640.44;5013533;28;20046;-74
2021/10/20 06:02:39;;;;;;;6.75;4.22;;;;;;;9.39;70.92;96647.59;5013349;28;20057;-74
2021/10/20 06:05:08;;;;;;;5.60;4.65;;;;;;;9.37;71.14;96644.34;5012960;28;20440;-74
2021/10/20 06:07:39;;;;;;;5.85;4.70;;;;;;;9.34;71.08;96649.13;5012911;28;20124;-74
2021/10/20 06:10:08;;;;;;;6.17;4.87;;;;;;;9.28;71.08;96648.81;5012695;28;20096;-74
2021/10/20 06:12:35;;;;;;;7.93;4.00;;;;;;;9.24;71.27;96651.91;5013055;28;20061;-74
2021/10/20 06:15:04;;;;;;;5.80;4.75;;;;;;;9.19;71.13;96651.63;5012888;28;20045;-74
2021/10/20 06:17:33;;;;;;;9.43;5.05;;;;;;;9.18;71.49;96650.00;5012811;28;20042;-74
2021/10/20 06:20:00;;;;;;;6.85;4.65;;;;;;;9.15;71.38;96645.16;5012665;28;20049;-74
2021/10/20 06:22:28;;;;;;;6.60;4.32;;;;;;;9.15;71.57;96651.16;5012879;28;20427;-75
2021/10/20 06:24:55;;;;;;;6.85;4.22;;;;;;;9.19;73.09;96651.63;5013143;28;20054;-74
2021/10/20 06:27:23;;;;;;;11.38;4.97;;;;;;;9.23;72.54;96648.50;5012900;28;20041;-74
2021/10/20 06:29:50;;;;;;;6.57;4.82;;;;;;;9.31;75.01;96649.44;5012244;28;20546;-74
2021/10/20 06:32:19;;;;;;;8.13;4.65;;;;;;;9.40;73.62;96641.41;5012542;28;20418;-74
2021/10/20 06:34:48;;;;;;;4.63;3.80;;;;;;;9.46;72.23;96650.31;5012459;28;20054;-74
2021/10/20 06:37:16;;;;;;;5.50;3.90;;;;;;;9.56;71.68;96650.09;5012793;28;20046;-74
2021/10/20 06:39:47;;;;;;;4.88;4.00;;;;;;;9.66;72.26;96648.88;5016522;28;20077;-74
2021/10/20 06:42:15;;;;;;;6.07;3.85;;;;;;;9.79;71.45;96652.69;5028713;28;20061;-75
2021/10/20 06:44:42;;;;;;;5.72;4.40;;;;;;;9.96;73.10;96648.94;5028210;28;20049;-74
2021/10/20 06:47:10;;;;;;;5.40;4.50;;;;;;;10.14;75.11;96646.00;5024281;28;20048;-75
2021/10/20 06:49:37;;;;;;;7.38;4.55;;;;;;;10.30;73.44;96640.69;5012590;28;20061;-75
2021/10/20 06:52:06;;;;;;;6.38;4.20;;;;;;;10.48;72.61;96655.97;5012499;28;20061;-74
2021/10/20 06:54:33;;;;;;;6.38;5.18;;;;;;;10.66;74.91;96658.22;5012392;28;20050;-75
2021/10/20 06:57:01;;;;;;;5.60;4.53;;;;;;;10.84;76.20;96652.63;5012411;28;20049;-75
2021/10/20 06:59:28;;;;;;;6.20;4.03;;;;;;;11.01;72.62;96653.22;5012005;28;20057;-75
2021/10/20 07:01:56;;;;;;;5.10;4.20;;;;;;;11.19;73.50;96652.81;5013285;28;20061;-74
2021/10/20 07:04:23;;;;;;;5.55;3.60;;;;;;;11.35;70.67;96654.44;5012248;28;20076;-75
2021/10/20 07:06:51;;;;;;;4.32;3.70;;;;;;;11.47;68.89;96642.47;5013111;28;20492;-75
2021/10/20 07:09:21;;;;;;;5.57;4.13;;;;;;;11.54;67.05;96642.53;5012071;28;20396;-76
2021/10/20 07:11:50;;;;;;;9.05;4.63;;;;;;;11.68;69.96;96640.88;5012363;28;20049;-76
2021/10/20 07:14:17;;;;;;;7.13;4.68;;;;;;;11.82;71.06;96650.44;5013403;28;20053;-76
2021/10/20 07:16:45;;;;;;;7.85;4.43;;;;;;;11.95;72.52;96655.00;5016403;28;20050;-76
2021/10/20 07:19:12;;;;;;;8.57;4.65;;;;;;;12.08;71.26;96652.47;5016185;28;20050;-76
2021/10/20 07:21:40;;;;;;;5.10;3.97;;;;;;;12.18;67.88;96654.78;5016500;28;20049;-76
2021/10/20 07:24:07;;;;;;;6.63;4.50;;;;;;;12.27;66.38;96658.88;5016209;28;20053;-75
2021/10/20 07:26:36;;;;;;;6.25;4.70;;;;;;;12.42;68.11;96661.38;5015703;28;20061;-76
2021/10/20 07:29:04;;;;;;;7.95;5.18;;;;;;;12.56;68.42;96657.03;5015764;28;20467;-76
2021/10/20 07:31:31;;;;;;;8.68;5.32;;;;;;;12.71;68.85;96657.72;5016116;28;20054;-76
2021/10/20 07:34:00;;;;;;;7.53;4.90;;;;;;;12.87;69.01;96653.16;5015948;28;20054;-75
2021/10/20 07:36:28;;;;;;;5.47;4.80;;;;;;;13.05;68.16;96655.25;5015742;28;20438;-76
2021/10/20 07:38:56;;;;;;;5.45;4.18;;;;;;;13.18;65.62;96645.63;5015505;28;20054;-75
2021/10/20 07:41:24;;;;;;;6.80;4.25;;;;;;;13.35;66.38;96653.97;5015474;28;20045;-75
2021/10/20 07:43:53;;;;;;;6.40;4.53;;;;;;;13.57;68.58;96649.38;5015625;28;20516;-76
2021/10/20 07:46:20;;;;;;;6.38;4.80;;;;;;;13.77;68.43;96652.03;5015810;28;20050;-76
2021/10/20 07:48:48;;;;;;;6.20;5.38;;;;;;;13.95;67.29;96653.22;5015089;28;20136;-75
2021/10/20 07:51:16;;;;;;;5.65;4.93;;;;;;;14.11;68.25;96654.66;5015532;28;20053;-76
2021/10/20 07:53:44;;;;;;;6.70;4.70;;;;;;;14.26;65.35;96652.63;5015444;28;20425;-76
2021/10/20 07:56:11;;;;;;;10.10;5.15;;;;;;;14.40;61.81;96651.59;5015622;28;20061;-75
2021/10/20 07:58:39;;;;;;;6.38;4.63;;;;;;;14.53;60.37;96648.13;5015177;28;20073;-76
2021/10/20 08:01:07;;;;;;;11.23;5.32;;;;;;;14.70;61.22;96648.53;5015525;28;20754;-76
2021/10/20 08:03:35;;;;;;;7.68;5.00;;;;;;;14.91;62.93;96646.66;5015408;28;20057;-76
2021/10/20 08:06:03;;;;;;;8.30;5.22;;;;;;;15.10;62.22;96643.13;5015564;28;20076;-76
2021/10/20 08:08:31;;;;;;;10.50;4.82;;;;;;;15.30;58.26;96637.78;5014972;28;20054;-77
2021/10/20 08:10:58;;;;;;;11.23;4.43;;;;;;;15.51;58.06;96634.03;5015400;28;20065;-76
2021/10/20 08:13:25;;;;;;;6.32;4.18;;;;;;;15.74;59.39;96630.06;5015232;28;20049;-76
2021/10/20 08:15:53;;;;;;;8.23;4.55;;;;;;;15.91;61.08;96617.19;5015273;28;20049;-76
2021/10/20 08:18:24;;;;;;;4.70;4.20;;;;;;;16.04;61.15;96617.88;5014908;28;20046;-76
2021/10/20 08:20:52;;;;;;;6.07;3.83;;;;;;;16.18;59.05;96608.06;5014958;28;20053;-76
2021/10/20 08:23:19;;;;;;;6.75;4.50;;;;;;;16.34;60.67;96606.69;5015020;28;20467;-76
2021/10/20 08:25:47;;;;;;;4.70;3.92;;;;;;;16.51;61.23;96606.09;5013675;28;20400;-76
2021/10/20 08:28:14;;;;;;;5.68;4.63;;;;;;;16.64;59.15;96595.44;5015192;28;20415;-74
2021/10/20 08:30:46;;;;;;;5.78;3.78;;;;;;;16.74;57.24;96593.06;5015664;28;20060;-76
2021/10/20 08:33:16;;;;;;;6.90;3.67;;;;;;;16.83;58.50;96596.25;5015295;28;20052;-74
2021/10/20 08:35:45;;;;;;;5.05;3.55;;;;;;;16.89;53.68;96574.28;5014965;28;20053;-74
2021/10/20 08:38:12;;;;;;;5.22;3.58;;;;;;;16.95;57.37;96580.50;5015039;28;20046;-74
2021/10/20 08:40:45;;;;;;;9.02;3.83;;;;;;;17.08;54.69;96589.03;5014293;28;20089;-74
2021/10/20 08:43:14;;;;;;;7.97;3.92;;;;;;;17.29;56.61;96594.84;5014555;28;20049;-74
2021/10/20 08:45:42;;;;;;;6.95;3.65;;;;;;;17.48;54.69;96592.94;5014202;28;20053;-74
2021/10/20 08:48:10;;;;;;;5.38;2.75;;;;;;;17.69;51.40;96581.09;5014131;28;20091;-76
2021/10/20 08:50:38;;;;;;;3.85;2.45;;;;;;;17.95;50.47;96582.53;5014059;28;20054;-74
2021/10/20 08:53:08;;;;;;;3.13;2.83;;;;;;;18.18;48.82;96581.69;5014155;28;20060;-74
2021/10/20 08:55:35;;;;;;;3.53;2.30;;;;;;;18.43;50.13;96580.63;5014252;28;20061;-74
2021/10/20 08:58:03;;;;;;;2.78;2.50;;;;;;;18.68;53.85;96575.09;5014022;28;20042;-74
2021/10/20 09:00:31;;;;;;;4.45;2.30;;;;;;;18.93;49.76;96580.91;5013494;28;20053;-74
2021/10/20 09:02:58;;;;;;;6.20;2.63;;;;;;;19.16;47.70;96584.50;5014013;28;20263;-74
2021/10/20 09:05:28;;;;;;;4.00;2.33;;;;;;;19.38;48.05;96591.75;5014003;28;20052;-74
2021/10/20 09:07:57;;;;;;;2.33;2.05;;;;;;;19.66;47.16;96589.06;5013700;28;20503;-74
2021/10/20 09:10:27;;;;;;;2.80;2.15;;;;;;;19.98;45.69;96596.47;5013844;28;20140;-74
2021/10/20 09:12:56;;;;;;;2.75;2.30;;;;;;;20.28;47.12;96595.31;5014932;28;20057;-75
2021/10/20 09:15:26;;;;;;;7.95;2.53;;;;;;;20.51;45.82;96595.13;5013872;28;20048;-75
2021/10/20 09:17:55;;;;;;;5.30;2.70;;;;;;;20.73;49.19;96589.06;5013752;28;20045;-74
2021/10/20 09:20:28;;;;;;;2.67;2.47;;;;;;;20.87;47.43;96595.59;5013422;28;20419;-74
2021/10/20 09:23:02;;;;;;;5.68;2.63;;;;;;;21.02;49.79;96604.78;5013515;28;20069;-75
2021/10/20 09:25:37;;;;;;;4.28;2.90;;;;;;;21.06;44.33;96595.28;5013499;28;20053;-75
2021/10/20 09:28:06;;;;;;;3.85;2.65;;;;;;;21.11;45.48;96582.06;5014123;28;20514;-75
2021/10/20 09:30:34;;;;;;;3.25;2.80;;;;;;;21.20;44.88;96573.41;5013096;28;20054;-75
2021/10/20 09:33:02;;;;;;;3.85;2.38;;;;;;;21.30;43.79;96558.66;5013408;28;20057;-75
2021/10/20 09:35:33;;;;;;;3.65;2.55;;;;;;;21.44;46.42;96569.69;5013464;28;20056;-75
2021/10/20 09:38:01;;;;;;;2.95;2.65;;;;;;;21.64;47.64;96545.97;5013100;28;20057;-75
2021/10/20 09:40:36;;;;;;;3.25;2.50;;;;;;;21.90;43.70;96538.97;5013033;28;20053;-74
2021/10/20 09:43:04;;;;;;;4.88;2.75;;;;;;;22.27;45.11;96534.72;5013093;28;20418;-75
2021/10/20 09:45:35;;;;;;;4.43;2.88;;;;;;;23.08;46.13;96541.44;5013268;28;20049;-75
2021/10/20 09:48:11;;;;;;;4.05;3.17;;;;;;;24.19;40.90;96531.84;5013013;28;20432;-75
2021/10/20 09:50:53;;;;;;;4.10;2.63;;;;;;;24.79;38.87;96529.25;5012894;28;20049;-75
2021/10/20 09:53:20;;;;;;;5.75;3.45;;;;;;;25.32;36.62;96522.56;5012893;28;20542;-75
2021/10/20 09:55:49;;;;;;;4.63;3.58;;;;;;;25.81;37.86;96524.31;5013144;28;20064;-75
2021/10/20 09:58:17;;;;;;;5.22;2.90;;;;;;;26.30;35.92;96510.75;5012988;28;20544;-75
2021/10/20 10:00:45;;;;;;;7.35;2.22;;;;;;;26.29;36.06;96501.13;5012562;28;20057;-75
2021/10/20 10:03:13;;;;;;;4.38;2.53;;;;;;;26.11;37.52;96499.19;5012985;28;20049;-75
2021/10/20 10:05:40;;;;;;;3.53;2.25;;;;;;;25.75;40.16;96502.19;5012894;28;20065;-75
2021/10/20 10:08:08;;;;;;;3.20;2.65;;;;;;;24.99;37.00;96499.00;5012727;28;20053;-74
2021/10/20 10:10:36;;;;;;;3.08;2.30;;;;;;;24.49;38.26;96495.53;5025304;23;20054;-78
2021/10/20 10:13:08;;;;;;;4.13;2.45;;;;;;;24.90;36.26;96475.84;5014252;28;20046;-77
2021/10/20 10:15:38;;;;;;;3.38;2.63;;;;;;;26.56;37.48;96481.03;5013919;28;20054;-77
2021/10/20 10:18:07;;;;;;;7.13;2.83;;;;;;;28.18;31.21;96482.53;5014049;28;20061;-77
2021/10/20 10:20:39;;;;;;;3.30;2.40;;;;;;;29.43;31.38;96491.16;5013310;28;20061;-78
2021/10/20 10:23:07;;;;;;;2.85;2.58;;;;;;;30.26;28.63;96483.38;5013848;28;20046;-76
2021/10/20 10:25:38;;;;;;;6.78;3.17;;;;;;;30.94;30.65;96475.00;5013444;28;20423;-78
2021/10/20 10:28:08;;;;;;;3.78;2.50;;;;;;;31.43;29.96;96475.66;5013500;28;20041;-77
2021/10/20 10:30:55;;;;;;;2.08;1.60;;;;;;;31.69;29.90;96456.72;5015003;28;20057;-78
2021/10/20 10:33:25;;;;;;;2.63;1.85;;;;;;;31.27;28.61;96445.69;5015172;28;20053;-78
2021/10/20 10:36:04;;;;;;;2.38;1.80;;;;;;;30.59;30.52;96443.44;5013431;28;20056;-78
2021/10/20 10:38:37;;;;;;;3.88;1.63;;;;;;;29.83;31.19;96427.53;5012560;28;20535;-77
2021/10/20 10:41:20;;;;;;;1.23;0.88;;;;;;;28.83;33.23;96438.56;5013554;28;20056;-78
2021/10/20 10:44:18;;;;;;;1.20;1.10;;;;;;;27.93;31.59;96418.38;5020255;28;20057;-78
2021/10/20 10:47:15;;;;;;;1.63;1.20;;;;;;;27.10;35.37;96426.19;4981573;28;20058;-77
2021/10/20 10:49:45;;;;;;;1.58;1.30;;;;;;;26.45;31.55;96424.16;5003114;28;20078;-76
2021/10/20 10:52:33;;;;;;;4.18;1.73;;;;;;;25.92;35.64;96426.97;5013764;28;20404;-77
2021/10/20 10:55:07;;;;;;;2.60;1.63;;;;;;;25.57;37.67;96430.78;5019876;28;20484;-78
2021/10/20 10:57:44;;;;;;;2.55;1.52;;;;;;;25.25;41.26;96424.94;5016244;28;20049;-78
2021/10/20 11:00:27;;;;;;;2.38;0.95;;;;;;;25.12;37.19;96433.50;5012552;28;20281;-77
2021/10/20 11:02:56;;;;;;;2.00;1.30;;;;;;;25.05;37.02;96425.03;5012987;28;20136;-77
2021/10/20 11:05:25;;;;;;;3.42;1.33;;;;;;;24.88;38.26;96426.25;5012532;28;20049;-77
2021/10/20 11:07:59;;;;;;;2.40;1.30;;;;;;;24.64;36.77;96425.31;5013563;28;20061;-77
2021/10/20 11:10:26;;;;;;;2.58;1.10;;;;;;;24.34;37.05;96420.94;5013436;28;20053;-77
2021/10/20 11:12:55;;;;;;;3.20;0.93;;;;;;;24.12;34.10;96414.09;5013203;28;20504;-78
2021/10/20 11:15:24;;;;;;;1.98;1.10;;;;;;;23.96;41.12;96410.66;5013555;28;20061;-77
2021/10/20 11:17:55;;;;;;;1.55;1.35;;;;;;;23.78;39.49;96409.41;5013770;28;20423;-77
2021/10/20 11:20:24;;;;;;;1.13;1.00;;;;;;;23.68;37.10;96409.41;5012691;28;20400;-77
2021/10/20 11:22:54;;;;;;;1.40;1.05;;;;;;;23.77;39.46;96407.03;5013393;28;20054;-77
2021/10/20 11:25:23;;;;;;;4.13;1.33;;;;;;;23.79;36.73;96405.69;5013514;28;20057;-77
2021/10/20 11:27:52;;;;;;;1.58;1.48;;;;;;;23.69;38.92;96408.34;5013831;28;20057;-77
2021/10/20 11:30:21;;;;;;;1.60;1.50;;;;;;;23.58;39.98;96398.78;5013555;28;20053;-77
2021/10/20 11:32:49;;;;;;;3.53;1.60;;;;;;;23.70;37.35;96391.28;5013401;28;20073;-77
2021/10/20 11:35:19;;;;;;;1.23;1.00;;;;;;;23.93;40.87;96392.56;5013481;28;20306;-77
2021/10/20 11:37:55;;;;;;;3.03;1.58;;;;;;;23.93;42.83;96391.78;5013819;28;20056;-77
2021/10/20 11:40:23;;;;;;;1.45;1.35;;;;;;;23.64;36.37;96376.41;5012983;28;20050;-77
2021/10/20 11:42:51;;;;;;;2.03;1.40;;;;;;;23.31;42.62;96367.13;5014485;28;20065;-76
2021/10/20 11:45:19;;;;;;;1.60;1.50;;;;;;;22.97;44.51;96379.09;5014744;28;20377;-77
2021/10/20 11:47:47;;;;;;;2.42;1.40;;;;;;;22.66;42.59;96377.50;5016750;28;20050;-78